Time;durP1;ratioP1;P1;durP2;ratioP2;P2;SDS_P1;SDS_P2;PMS_P1;PMS_P2;Temp;Humidity;BMP_temperature;BMP_pressure;BME280_temperature;BME280_humidity;BME280_pressure;Samples;Min_cycle;Max_cycle;Signal;HPM_P1;HPM_P2
2023/01/16 00:01:14;;;;;;;0.87;0.60;;;;;;;5.02;79.42;98676.75;5071155;28;20183;-74
2023/01/16 00:03:39;;;;;;;1.20;0.40;;;;;;;5.09;79.15;98685.22;5070457;28;20206;-75
2023/01/16 00:06:04;;;;;;;0.10;0.10;;;;;;;5.07;78.83;98677.41;5070872;28;20555;-75
2023/01/16 00:08:30;;;;;;;0.00;0.00;;;;;;;5.08;78.85;98673.59;5070769;28;20634;-75
2023/01/16 00:10:55;;;;;;;0.00;0.00;;;;;;;5.07;79.33;98676.63;5070391;28;20209;-75
2023/01/16 00:13:21;;;;;;;0.10;0.10;;;;;;;5.07;78.76;98666.59;5070579;28;20178;-75
2023/01/16 00:15:49;;;;;;;0.13;0.10;;;;;;;5.06;79.20;98666.88;5070548;28;20170;-75
2023/01/16 00:18:14;;;;;;;0.00;0.00;;;;;;;5.07;79.06;98672.00;5070596;28;20175;-75
2023/01/16 00:20:39;;;;;;;0.30;0.30;;;;;;;5.10;79.13;98670.56;5069415;28;20184;-76
2023/01/16 00:23:05;;;;;;;0.00;0.00;;;;;;;5.14;78.91;98657.19;5070292;28;20186;-75
2023/01/16 00:25:30;;;;;;;0.47;0.10;;;;;;;5.09;79.32;98655.44;5070352;28;20178;-75
2023/01/16 00:27:55;;;;;;;8.03;0.43;;;;;;;5.10;79.31;98651.59;5070482;28;20167;-75
2023/01/16 00:30:21;;;;;;;0.67;0.40;;;;;;;5.09;79.20;98650.03;5070337;28;20198;-75
2023/01/16 00:32:46;;;;;;;0.00;0.00;;;;;;;5.07;79.44;98636.81;5070312;28;20667;-75
2023/01/16 00:35:12;;;;;;;0.10;0.10;;;;;;;5.10;79.58;98629.97;5070453;28;20170;-75
2023/01/16 00:37:37;;;;;;;0.00;0.00;;;;;;;5.06;79.50;98627.09;5070310;28;20477;-75
2023/01/16 00:40:03;;;;;;;1.90;0.50;;;;;;;5.03;80.28;98622.31;5070231;28;20486;-75
2023/01/16 00:42:28;;;;;;;0.20;0.20;;;;;;;5.04;79.81;98620.41;5070770;28;20187;-75
2023/01/16 00:44:53;;;;;;;6.37;0.93;;;;;;;4.97;80.18;98618.19;5074034;28;20488;-75
2023/01/16 00:47:18;;;;;;;2.53;0.93;;;;;;;4.94;80.01;98615.31;5074285;28;20168;-75
2023/01/16 00:49:44;;;;;;;0.00;0.00;;;;;;;4.87;80.21;98613.09;5074176;28;20190;-75
2023/01/16 00:52:09;;;;;;;0.00;0.00;;;;;;;4.70;80.91;98613.09;5072846;28;20210;-75
2023/01/16 00:54:35;;;;;;;0.17;0.00;;;;;;;4.78;80.96;98613.09;5073970;28;20182;-75
2023/01/16 00:57:00;;;;;;;0.00;0.00;;;;;;;4.72;81.08;98597.31;5073780;28;20178;-75
2023/01/16 00:59:25;;;;;;;0.00;0.00;;;;;;;4.73;80.96;98598.91;5072751;28;20174;-74
2023/01/16 01:01:51;;;;;;;0.10;0.10;;;;;;;4.73;81.61;98610.53;5073832;28;20182;-75
2023/01/16 01:04:16;;;;;;;0.00;0.00;;;;;;;4.77;81.52;98606.09;5072171;28;20189;-74
2023/01/16 01:06:42;;;;;;;0.20;0.20;;;;;;;4.83;81.35;98612.13;5073651;28;20269;-75
2023/01/16 01:09:07;;;;;;;0.83;0.40;;;;;;;4.84;81.94;98610.22;5073724;28;20649;-75
2023/01/16 01:11:32;;;;;;;0.33;0.10;;;;;;;4.81;82.65;98606.25;5073705;28;20285;-75
2023/01/16 01:13:58;;;;;;;0.30;0.23;;;;;;;4.85;83.06;98604.50;5073363;28;20539;-75
2023/01/16 01:16:23;;;;;;;0.00;0.00;;;;;;;4.83;83.64;98605.94;5073603;28;20179;-75
2023/01/16 01:18:49;;;;;;;0.30;0.27;;;;;;;4.86;83.42;98608.00;5073586;28;20638;-75
2023/01/16 01:21:15;;;;;;;1.00;0.40;;;;;;;4.83;83.49;98611.34;5073390;28;20642;-75
2023/01/16 01:23:40;;;;;;;1.67;0.30;;;;;;;4.82;83.74;98607.03;5073261;28;20166;-75
2023/01/16 01:26:17;;;;;;;0.67;0.23;;;;;;;4.76;83.96;98603.69;5073343;28;20690;-74
2023/01/16 01:28:42;;;;;;;0.10;0.00;;;;;;;4.73;84.81;98607.03;5073462;28;20529;-75
2023/01/16 01:31:10;;;;;;;0.60;0.57;;;;;;;4.71;84.86;98610.06;5073762;28;20194;-74
2023/01/16 01:33:36;;;;;;;0.20;0.10;;;;;;;4.68;85.02;98594.47;5075419;28;20182;-74
2023/01/16 01:36:03;;;;;;;0.13;0.10;;;;;;;4.65;85.60;98597.03;5084473;28;20179;-73
2023/01/16 01:38:29;;;;;;;1.80;0.37;;;;;;;4.64;85.49;98587.31;5074829;28;20202;-74
2023/01/16 01:40:54;;;;;;;0.00;0.00;;;;;;;4.62;85.64;98589.53;5072299;28;20248;-73
2023/01/16 01:43:20;;;;;;;0.00;0.00;;;;;;;4.58;85.46;98583.16;5073198;28;20250;-73
2023/01/16 01:45:53;;;;;;;0.30;0.30;;;;;;;4.60;86.35;98579.03;5072894;28;20224;-75
2023/01/16 01:48:27;;;;;;;0.03;0.03;;;;;;;4.60;86.31;98573.63;5073271;28;20245;-73
2023/01/16 01:51:04;;;;;;;1.70;1.60;;;;;;;4.59;86.30;98569.31;5072943;28;20206;-73
2023/01/16 01:53:41;;;;;;;0.93;0.60;;;;;;;4.59;85.97;98565.81;5072855;28;20649;-74
2023/01/16 01:56:16;;;;;;;1.50;0.20;;;;;;;4.56;86.61;98552.94;5071499;28;20253;-73
2023/01/16 01:58:43;;;;;;;0.00;0.00;;;;;;;4.50;86.62;98555.03;5072857;28;20174;-74
2023/01/16 02:01:08;;;;;;;0.00;0.00;;;;;;;4.50;87.49;98556.94;5073091;28;20182;-74
2023/01/16 02:03:39;;;;;;;0.00;0.00;;;;;;;4.54;87.49;98544.34;5072838;28;20166;-74
2023/01/16 02:06:11;;;;;;;0.00;0.00;;;;;;;4.56;86.84;98539.41;5072615;28;20591;-74
2023/01/16 02:08:36;;;;;;;0.00;0.00;;;;;;;4.58;87.33;98542.59;5072584;28;20170;-73
2023/01/16 02:11:25;;;;;;;0.00;0.00;;;;;;;4.50;86.97;98530.69;5072482;28;20202;-74
2023/01/16 02:13:56;;;;;;;0.00;0.00;;;;;;;4.52;87.06;98528.44;5072328;28;20537;-73
2023/01/16 02:19:15;;;;;;;0.30;0.30;;;;;;;4.55;86.70;98518.91;5072367;28;20732;-73
2023/01/16 02:22:10;;;;;;;0.10;0.10;;;;;;;4.47;87.00;98506.97;5072418;28;20258;-73
2023/01/16 02:24:47;;;;;;;0.20;0.20;;;;;;;4.48;87.61;98514.78;5072119;28;20265;-74
2023/01/16 02:27:40;;;;;;;0.00;0.00;;;;;;;4.49;87.64;98512.88;5072144;28;20171;-73
2023/01/16 02:30:24;;;;;;;0.00;0.00;;;;;;;4.47;87.81;98506.97;5070836;28;20253;-73
2023/01/16 02:32:53;;;;;;;0.27;0.27;;;;;;;4.48;87.42;98498.56;5070666;28;20179;-73
2023/01/16 02:35:34;;;;;;;2.20;0.87;;;;;;;4.45;88.05;98498.38;5072075;28;20479;-74
2023/01/16 02:38:04;;;;;;;0.00;0.00;;;;;;;4.43;88.05;98493.28;5071917;28;20171;-73
2023/01/16 02:40:47;;;;;;;0.00;0.00;;;;;;;4.44;88.18;98486.78;5072102;28;20729;-74
2023/01/16 02:43:37;;;;;;;0.60;0.60;;;;;;;4.42;88.43;98477.41;5070459;28;20170;-74
2023/01/16 02:46:14;;;;;;;0.00;0.00;;;;;;;4.37;88.55;98472.16;5070958;28;20193;-73
2023/01/16 02:49:18;;;;;;;0.00;0.00;;;;;;;4.31;88.52;98470.72;5072074;28;20170;-74
2023/01/16 02:52:05;;;;;;;0.33;0.33;;;;;;;4.31;88.63;98460.69;5053909;28;20214;-74
2023/01/16 02:54:40;;;;;;;0.00;0.00;;;;;;;4.25;88.62;98455.78;5071377;28;20685;-73
2023/01/16 02:57:12;;;;;;;0.00;0.00;;;;;;;4.13;89.20;98449.09;5071532;28;20186;-73
2023/01/16 02:59:41;;;;;;;0.00;0.00;;;;;;;4.19;89.35;98449.72;5071530;28;20179;-74
2023/01/16 03:02:06;;;;;;;0.47;0.47;;;;;;;4.20;90.11;98448.63;5071560;28;20167;-74
2023/01/16 03:04:45;;;;;;;0.00;0.00;;;;;;;4.25;89.87;98439.56;5071044;28;20177;-74
2023/01/16 03:07:52;;;;;;;0.30;0.30;;;;;;;4.28;90.48;98439.72;5071007;28;20614;-74
2023/01/16 03:10:23;;;;;;;0.00;0.00;;;;;;;4.25;90.34;98434.16;5071540;28;20318;-72
2023/01/16 03:13:06;;;;;;;0.10;0.10;;;;;;;4.31;90.86;98422.84;5071247;28;20171;-74
2023/01/16 03:15:44;;;;;;;0.00;0.00;;;;;;;4.31;89.81;98416.66;5071332;28;20169;-75
2023/01/16 03:18:22;;;;;;;0.00;0.00;;;;;;;4.21;90.14;98412.38;5071358;28;20162;-75
2023/01/16 03:20:59;;;;;;;0.73;0.73;;;;;;;4.23;89.97;98409.38;5071656;28;20175;-74
2023/01/16 03:24:08;;;;;;;0.13;0.13;;;;;;;4.24;90.37;98394.75;5071526;28;20166;-75
2023/01/16 03:26:48;;;;;;;0.00;0.00;;;;;;;4.23;90.68;98395.84;4989653;28;20189;-75
2023/01/16 03:29:29;;;;;;;0.00;0.00;;;;;;;4.24;91.45;98392.81;5067030;28;20276;-75
2023/01/16 03:32:00;;;;;;;0.40;0.40;;;;;;;4.25;91.08;98386.31;5071068;28;20669;-75
2023/01/16 03:34:44;;;;;;;0.67;0.17;;;;;;;4.29;90.79;98389.16;5069557;28;20177;-75
2023/01/16 03:37:18;;;;;;;0.00;0.00;;;;;;;4.28;90.80;98380.25;5069755;28;20178;-75
2023/01/16 03:39:52;;;;;;;0.17;0.10;;;;;;;4.29;90.98;98372.94;5071068;28;20248;-75
2023/01/16 03:43:01;;;;;;;0.00;0.00;;;;;;;4.21;90.62;98352.94;5069734;28;20598;-75
2023/01/16 03:46:09;;;;;;;0.00;0.00;;;;;;;4.31;90.74;98357.19;5062247;28;20198;-75
2023/01/16 03:48:54;;;;;;;0.53;0.53;;;;;;;4.23;90.19;98353.41;5064977;28;20533;-75
2023/01/16 03:51:31;;;;;;;0.00;0.00;;;;;;;4.18;90.44;98351.66;5070739;28;20206;-75
2023/01/16 03:54:09;;;;;;;0.03;0.03;;;;;;;4.15;90.34;98349.59;5070738;28;20159;-75
2023/01/16 03:56:44;;;;;;;0.00;0.00;;;;;;;4.12;90.75;98355.63;5070800;28;20193;-75
2023/01/16 03:59:09;;;;;;;1.83;0.30;;;;;;;4.20;90.30;98355.97;5069467;28;20653;-75
2023/01/16 04:01:44;;;;;;;0.00;0.00;;;;;;;4.14;90.36;98350.69;5070830;28;20182;-75
2023/01/16 04:04:18;;;;;;;0.10;0.10;;;;;;;4.14;90.68;98336.41;5070631;28;20203;-75
2023/01/16 04:06:49;;;;;;;0.37;0.37;;;;;;;4.14;91.19;98339.09;5070544;28;20187;-76
2023/01/16 04:09:29;;;;;;;0.00;0.00;;;;;;;4.12;90.91;98330.53;5070736;28;20186;-75
2023/01/16 04:11:56;;;;;;;0.00;0.00;;;;;;;4.20;91.31;98337.84;5070628;28;20194;-75
2023/01/16 04:14:25;;;;;;;0.00;0.00;;;;;;;4.16;91.07;98336.88;5070467;28;20716;-75
2023/01/16 04:16:50;;;;;;;0.90;0.90;;;;;;;4.12;91.17;98325.91;5070535;28;20734;-75
2023/01/16 04:19:18;;;;;;;0.00;0.00;;;;;;;4.17;91.05;98324.94;5074368;28;20202;-74
2023/01/16 04:21:46;;;;;;;0.10;0.10;;;;;;;4.18;90.90;98321.91;5073306;28;20656;-75
2023/01/16 04:24:11;;;;;;;0.00;0.00;;;;;;;4.17;91.26;98312.22;5072954;28;20186;-74
2023/01/16 04:26:36;;;;;;;0.00;0.00;;;;;;;4.14;90.97;98317.47;5073281;28;20553;-75
2023/01/16 04:29:02;;;;;;;0.00;0.00;;;;;;;4.08;91.68;98319.56;5074516;28;20531;-75
2023/01/16 04:31:28;;;;;;;0.00;0.00;;;;;;;4.08;91.20;98313.38;5074713;28;20202;-75
2023/01/16 04:33:53;;;;;;;0.00;0.00;;;;;;;4.07;91.68;98304.47;5074288;28;20171;-75
2023/01/16 04:36:19;;;;;;;0.20;0.20;;;;;;;4.08;91.36;98300.66;5074256;28;20178;-76
2023/01/16 04:38:44;;;;;;;0.00;0.00;;;;;;;3.95;91.68;98293.53;5074403;28;20254;-75
2023/01/16 04:41:09;;;;;;;0.00;0.00;;;;;;;3.95;92.06;98290.81;5074267;28;20700;-75
2023/01/16 04:43:35;;;;;;;0.87;0.40;;;;;;;3.95;91.96;98281.94;5074041;28;20177;-75
2023/01/16 04:46:00;;;;;;;0.33;0.33;;;;;;;3.97;92.18;98282.41;5073812;28;20214;-75
2023/01/16 04:48:25;;;;;;;0.00;0.00;;;;;;;3.89;92.52;98275.88;5074143;28;20206;-75
2023/01/16 04:50:51;;;;;;;1.40;0.87;;;;;;;3.97;92.53;98268.91;5073939;28;20248;-75
2023/01/16 04:53:16;;;;;;;0.00;0.00;;;;;;;3.88;92.52;98264.28;5073850;28;20228;-75
2023/01/16 04:55:41;;;;;;;0.00;0.00;;;;;;;3.96;92.64;98264.59;5074003;28;20183;-75
2023/01/16 04:58:07;;;;;;;0.20;0.20;;;;;;;3.95;92.50;98258.41;5074290;28;20261;-75
2023/01/16 05:00:32;;;;;;;0.00;0.00;;;;;;;3.94;92.15;98246.03;5073831;28;20193;-75
2023/01/16 05:02:58;;;;;;;0.20;0.20;;;;;;;3.93;92.60;98259.84;5073631;28;20236;-75
2023/01/16 05:05:23;;;;;;;0.00;0.00;;;;;;;3.95;93.11;98249.50;5073663;28;20300;-75
2023/01/16 05:08:15;;;;;;;0.00;0.00;;;;;;;3.97;92.72;98242.66;5073780;28;20615;-75
2023/01/16 05:10:34;;;;;;;0.00;0.00;;;;;;;3.97;92.21;98247.28;5073506;28;20206;-75
2023/01/16 05:12:59;;;;;;;0.00;0.00;;;;;;;3.91;92.55;98240.47;5073411;28;20202;-76
2023/01/16 05:15:24;;;;;;;0.00;0.00;;;;;;;3.89;92.56;98238.06;5074192;28;20178;-75
2023/01/16 05:17:49;;;;;;;0.00;0.00;;;;;;;3.79;92.49;98235.72;5073615;28;20650;-75
2023/01/16 05:20:15;;;;;;;0.47;0.47;;;;;;;3.89;92.75;98238.88;5073582;28;20239;-75
2023/01/16 05:22:40;;;;;;;0.97;0.40;;;;;;;3.86;92.70;98244.13;5073319;28;20171;-75
2023/01/16 05:25:06;;;;;;;2.43;0.60;;;;;;;3.88;92.60;98231.09;5073705;28;20190;-75
2023/01/16 05:27:31;;;;;;;0.00;0.00;;;;;;;3.87;92.88;98233.00;5072149;28;20540;-75
2023/01/16 05:29:57;;;;;;;0.43;0.43;;;;;;;3.88;92.83;98222.97;5071444;28;20706;-75
2023/01/16 05:32:22;;;;;;;0.00;0.00;;;;;;;3.83;93.00;98223.94;5071941;28;20185;-76
2023/01/16 05:34:47;;;;;;;0.00;0.00;;;;;;;3.88;93.20;98222.97;5073054;28;20182;-76
2023/01/16 05:37:13;;;;;;;0.53;0.53;;;;;;;3.86;93.40;98220.59;5073063;28;20167;-75
2023/01/16 05:39:38;;;;;;;0.10;0.10;;;;;;;3.89;93.40;98213.75;5073192;28;20261;-75
2023/01/16 05:42:03;;;;;;;0.00;0.00;;;;;;;3.94;93.48;98219.00;5072930;28;20715;-75
2023/01/16 05:44:29;;;;;;;0.00;0.00;;;;;;;4.00;93.86;98216.91;5072706;28;20189;-75
2023/01/16 05:46:54;;;;;;;0.97;0.40;;;;;;;4.01;94.66;98229.31;5073239;28;20208;-75
2023/01/16 05:49:19;;;;;;;0.00;0.00;;;;;;;3.91;95.76;98222.38;5072381;28;20532;-75
2023/01/16 05:51:44;;;;;;;0.30;0.20;;;;;;;3.84;97.38;98208.53;5072826;28;20700;-75
2023/01/16 05:54:11;;;;;;;0.00;0.00;;;;;;;3.72;98.53;98201.09;5071655;28;20186;-76
2023/01/16 05:56:37;;;;;;;0.00;0.00;;;;;;;3.69;100.00;98200.97;5072671;28;20501;-75
2023/01/16 05:59:02;;;;;;;0.00;0.00;;;;;;;3.65;100.00;98192.72;5071391;28;20177;-75
2023/01/16 06:01:27;;;;;;;0.47;0.47;;;;;;;3.63;100.00;98186.84;5073025;28;20571;-75
2023/01/16 06:03:53;;;;;;;0.00;0.00;;;;;;;3.65;100.00;98184.63;5072523;28;20181;-75
2023/01/16 06:06:18;;;;;;;0.00;0.00;;;;;;;3.59;100.00;98175.06;5072643;28;20210;-76
2023/01/16 06:08:45;;;;;;;0.00;0.00;;;;;;;3.64;100.00;98168.75;5072615;28;20159;-75
2023/01/16 06:11:10;;;;;;;0.00;0.00;;;;;;;3.50;100.00;98155.44;5072507;28;20198;-75
2023/01/16 06:13:35;;;;;;;0.00;0.00;;;;;;;3.47;100.00;98151.47;5072302;28;20632;-75
2023/01/16 06:16:01;;;;;;;0.00;0.00;;;;;;;3.42;100.00;98148.13;5071079;28;20285;-75
2023/01/16 06:18:26;;;;;;;0.00;0.00;;;;;;;3.39;100.00;98146.88;5072314;28;20659;-75
2023/01/16 06:20:51;;;;;;;0.00;0.00;;;;;;;3.45;100.00;98140.19;5072352;28;20236;-76
2023/01/16 06:23:17;;;;;;;4.67;0.40;;;;;;;3.47;100.00;98142.56;5071998;28;20630;-75
2023/01/16 06:25:42;;;;;;;3.90;3.60;;;;;;;3.49;100.00;98135.75;5072130;28;20393;-76
2023/01/16 06:28:08;;;;;;;3.07;1.37;;;;;;;3.51;100.00;98130.03;5072070;28;20174;-76
2023/01/16 06:30:33;;;;;;;0.00;0.00;;;;;;;3.40;100.00;98126.88;5070642;28;20194;-75
2023/01/16 06:32:58;;;;;;;22.30;20.40;;;;;;;3.39;100.00;98119.09;5070412;28;20652;-75
2023/01/16 06:35:24;;;;;;;0.00;0.00;;;;;;;3.39;100.00;98117.19;5072180;28;20171;-74
2023/01/16 06:37:49;;;;;;;0.20;0.20;;;;;;;3.40;100.00;98110.66;5071732;28;20178;-75
2023/01/16 06:40:15;;;;;;;0.00;0.00;;;;;;;3.32;100.00;98095.28;5070992;28;20224;-76
2023/01/16 06:42:40;;;;;;;0.20;0.20;;;;;;;3.34;100.00;98098.47;5071581;28;20202;-76
2023/01/16 06:45:06;;;;;;;0.00;0.00;;;;;;;3.36;100.00;98096.25;5071754;28;20221;-76
2023/01/16 06:47:31;;;;;;;0.00;0.00;;;;;;;3.21;100.00;98086.75;5070201;28;20182;-76
2023/01/16 06:49:57;;;;;;;0.40;0.40;;;;;;;3.23;100.00;98086.44;5071641;28;20179;-75
2023/01/16 06:52:22;;;;;;;0.63;0.63;;;;;;;3.23;100.00;98079.13;5071579;28;20261;-76
2023/01/16 06:54:47;;;;;;;0.20;0.20;;;;;;;3.24;100.00;98074.53;5071243;28;20229;-76
2023/01/16 06:57:14;;;;;;;0.00;0.00;;;;;;;3.24;100.00;98067.22;5070212;28;20182;-75
2023/01/16 06:59:40;;;;;;;0.17;0.07;;;;;;;3.28;100.00;98067.38;5071704;28;20623;-75
2023/01/16 07:02:05;;;;;;;0.00;0.00;;;;;;;3.27;100.00;98060.38;5071387;28;20186;-75
2023/01/16 07:04:30;;;;;;;0.07;0.07;;;;;;;3.31;100.00;98071.31;5070945;28;20622;-75
2023/01/16 07:06:55;;;;;;;0.00;0.00;;;;;;;3.26;100.00;98073.09;5070645;28;20637;-75
2023/01/16 07:09:28;;;;;;;0.00;0.00;;;;;;;3.39;100.00;98067.81;5071259;28;20198;-75
2023/01/16 07:11:53;;;;;;;0.10;0.10;;;;;;;3.43;100.00;98072.22;5069878;28;20209;-85
2023/01/16 07:22:40;;;;;;;0.40;0.40;;;;;;;3.37;100.00;98045.75;5070981;28;20175;-74
2023/01/16 07:25:11;;;;;;;0.00;0.00;;;;;;;3.39;100.00;98033.53;5071251;28;20666;-74
2023/01/16 07:27:37;;;;;;;0.00;0.00;;;;;;;3.45;100.00;98034.91;5071119;28;20166;-75
2023/01/16 07:30:03;;;;;;;0.20;0.20;;;;;;;3.36;100.00;98033.38;5069593;28;20515;-74
2023/01/16 07:32:28;;;;;;;0.00;0.00;;;;;;;3.38;100.00;98031.94;5070838;28;20642;-74
2023/01/16 07:34:54;;;;;;;0.87;0.87;;;;;;;3.36;100.00;98028.78;5071059;28;20175;-74
2023/01/16 07:37:19;;;;;;;0.00;0.00;;;;;;;3.34;100.00;98019.44;5070892;28;20258;-74
2023/01/16 07:39:47;;;;;;;0.00;0.00;;;;;;;3.36;100.00;98012.59;5069684;28;20209;-74
2023/01/16 07:42:12;;;;;;;0.00;0.00;;;;;;;3.39;100.00;98013.84;5070903;28;20185;-74
2023/01/16 07:44:37;;;;;;;0.00;0.00;;;;;;;3.34;100.00;98011.34;5070349;28;20548;-74
2023/01/16 07:47:02;;;;;;;0.00;0.00;;;;;;;3.36;100.00;98001.78;5070571;28;20170;-74
2023/01/16 07:49:28;;;;;;;0.00;0.00;;;;;;;3.30;100.00;97997.66;5069532;28;20544;-74
2023/01/16 07:51:53;;;;;;;1.57;1.50;;;;;;;3.42;100.00;98010.50;5070614;28;20202;-73
2023/01/16 07:54:18;;;;;;;10.10;0.67;;;;;;;3.40;100.00;98008.13;5069186;28;20628;-74
2023/01/16 07:56:44;;;;;;;0.17;0.17;;;;;;;3.39;100.00;98003.84;5069269;28;20174;-75
2023/01/16 07:59:09;;;;;;;0.00;0.00;;;;;;;3.45;100.00;97997.13;5070675;28;20174;-77
2023/01/16 08:01:34;;;;;;;0.00;0.00;;;;;;;3.49;100.00;97992.69;5070697;28;20174;-75
2023/01/16 08:04:00;;;;;;;0.00;0.00;;;;;;;3.54;100.00;97984.41;5070498;28;20199;-76
2023/01/16 08:06:25;;;;;;;0.00;0.00;;;;;;;3.59;100.00;97981.50;5070136;28;20218;-77
2023/01/16 08:08:51;;;;;;;0.00;0.00;;;;;;;3.70;100.00;97981.94;5070536;28;20642;-78
2023/01/16 08:14:01;;;;;;;0.00;0.00;;;;;;;3.76;100.00;97974.41;5070603;28;20289;-76
2023/01/16 08:16:26;;;;;;;0.00;0.00;;;;;;;3.83;100.00;97972.00;5070699;28;20209;-76
2023/01/16 08:18:52;;;;;;;0.00;0.00;;;;;;;3.85;100.00;97978.66;5070363;28;20622;-77
2023/01/16 08:21:17;;;;;;;0.00;0.00;;;;;;;3.85;100.00;97969.75;5068870;28;20228;-77
2023/01/16 08:23:43;;;;;;;0.20;0.20;;;;;;;3.90;100.00;97966.84;5070231;28;20201;-77
2023/01/16 08:26:09;;;;;;;0.00;0.00;;;;;;;3.93;100.00;97962.72;5070583;28;20181;-79
2023/01/16 08:28:35;;;;;;;0.00;0.00;;;;;;;3.98;100.00;97960.63;5070275;28;20284;-78
2023/01/16 08:31:07;;;;;;;0.00;0.00;;;;;;;4.06;100.00;97943.56;5070372;28;20202;-76
2023/01/16 08:33:37;;;;;;;0.00;0.00;;;;;;;4.16;100.00;97942.34;5069979;28;20174;-75
2023/01/16 08:36:04;;;;;;;0.00;0.00;;;;;;;4.12;100.00;97931.44;5070199;28;20186;-77
2023/01/16 08:38:30;;;;;;;0.00;0.00;;;;;;;4.11;100.00;97918.25;5070221;28;20393;-77
2023/01/16 08:40:56;;;;;;;0.00;0.00;;;;;;;4.15;100.00;97921.88;5070293;28;20179;-77
2023/01/16 08:51:45;;;;;;;0.00;0.00;;;;;;;4.24;98.54;97902.88;5070148;28;20761;-77
2023/01/16 08:54:11;;;;;;;0.00;0.00;;;;;;;4.27;98.05;97903.00;5069940;28;20194;-78
2023/01/16 08:56:42;;;;;;;0.20;0.17;;;;;;;4.33;98.01;97901.66;5069907;28;20178;-78
2023/01/16 08:59:07;;;;;;;0.30;0.30;;;;;;;4.35;97.13;97907.56;5068762;28;20171;-77
2023/01/16 09:01:33;;;;;;;0.20;0.20;;;;;;;4.38;97.19;97895.28;5069948;28;20162;-76
2023/01/16 09:03:58;;;;;;;0.00;0.00;;;;;;;4.45;96.99;97887.41;5071090;28;20178;-77
2023/01/16 09:06:24;;;;;;;0.00;0.00;;;;;;;4.50;97.09;97889.91;5073500;28;20553;-78
2023/01/16 09:08:49;;;;;;;3.60;0.23;;;;;;;4.54;96.90;97885.41;5073504;28;20212;-77
2023/01/16 09:14:00;;;;;;;0.00;0.00;;;;;;;4.69;95.66;97881.25;5072887;28;20605;-77
2023/01/16 09:16:25;;;;;;;0.37;0.20;;;;;;;4.63;94.67;97883.41;5073426;28;20167;-77
2023/01/16 09:18:51;;;;;;;0.27;0.20;;;;;;;4.65;94.70;97873.03;5072045;28;20266;-75
2023/01/16 09:21:22;;;;;;;0.00;0.00;;;;;;;4.62;94.12;97865.56;5073318;28;20199;-78
2023/01/16 09:23:47;;;;;;;0.27;0.27;;;;;;;4.61;93.91;97863.22;5073095;28;20617;-82
2023/01/16 09:26:13;;;;;;;0.67;0.67;;;;;;;4.62;93.92;97857.47;5073066;28;20163;-80
2023/01/16 09:28:38;;;;;;;0.03;0.03;;;;;;;4.63;93.68;97859.06;5072039;28;20201;-79
2023/01/16 09:31:04;;;;;;;0.03;0.03;;;;;;;4.65;93.43;97848.72;5073161;28;20669;-76
2023/01/16 09:33:29;;;;;;;0.00;0.00;;;;;;;4.64;92.61;97844.44;5072992;28;20202;-77
2023/01/16 09:35:54;;;;;;;0.00;0.00;;;;;;;4.58;92.89;97836.84;5073117;28;20254;-75
2023/01/16 09:38:20;;;;;;;0.00;0.00;;;;;;;4.61;92.81;97836.97;5072010;28;20177;-74
2023/01/16 09:40:49;;;;;;;3.87;0.73;;;;;;;4.66;92.56;97831.34;5073318;28;20638;-74
2023/01/16 09:43:35;;;;;;;0.00;0.00;;;;;;;4.72;92.33;97821.88;5072807;28;20269;-74
2023/01/16 09:46:04;;;;;;;0.00;0.00;;;;;;;4.80;92.06;97814.00;5071602;28;20174;-74
2023/01/16 09:48:32;;;;;;;0.00;0.00;;;;;;;4.83;91.29;97819.53;5072941;28;20593;-74
2023/01/16 09:51:04;;;;;;;0.00;0.00;;;;;;;4.85;91.28;97802.97;5071598;28;20201;-74
2023/01/16 09:59:21;;;;;;;0.00;0.00;;;;;;;5.10;89.92;97790.22;5073202;28;20228;-75
2023/01/16 10:01:53;;;;;;;0.13;0.13;;;;;;;5.04;89.27;97776.09;5072686;28;20568;-76
2023/01/16 10:04:21;;;;;;;0.40;0.40;;;;;;;5.15;89.14;97773.72;5071240;28;20673;-78
2023/01/16 10:06:54;;;;;;;0.70;0.70;;;;;;;5.14;88.20;97770.22;5072926;28;20194;-76
2023/01/16 10:09:24;;;;;;;0.07;0.07;;;;;;;5.11;88.50;97757.38;5072690;28;20182;-77
2023/01/16 10:12:04;;;;;;;0.00;0.00;;;;;;;5.12;88.63;97741.94;5072481;28;20564;-77
2023/01/16 10:15:01;;;;;;;0.00;0.00;;;;;;;5.14;87.64;97735.06;5072111;28;20166;-77
2023/01/16 10:17:42;;;;;;;0.10;0.10;;;;;;;5.14;87.54;97713.41;5072661;28;20178;-75
2023/01/16 10:20:25;;;;;;;0.00;0.00;;;;;;;5.12;87.01;97715.66;5072828;28;20556;-77
2023/01/16 10:23:12;;;;;;;0.60;0.20;;;;;;;5.15;85.86;97712.28;5071487;28;20170;-76
2023/01/16 10:25:57;;;;;;;0.00;0.00;;;;;;;5.11;86.06;97697.84;5070788;28;20273;-74
2023/01/16 10:28:41;;;;;;;0.10;0.10;;;;;;;5.16;86.25;97686.78;5070820;28;20166;-74
2023/01/16 10:31:14;;;;;;;0.50;0.50;;;;;;;5.16;86.04;97678.66;5071797;28;20202;-76
2023/01/16 10:33:47;;;;;;;0.00;0.00;;;;;;;5.22;85.95;97671.09;5071945;28;20167;-76
2023/01/16 10:36:15;;;;;;;0.10;0.10;;;;;;;5.14;85.63;97669.31;5070873;28;20761;-76
2023/01/16 10:38:45;;;;;;;0.00;0.00;;;;;;;5.10;85.22;97660.31;5071974;28;20175;-75
2023/01/16 10:49:45;;;;;;;0.20;0.20;;;;;;;5.07;85.11;97632.03;5077604;28;20245;-73
2023/01/16 10:52:11;;;;;;;0.00;0.00;;;;;;;5.07;84.62;97626.63;5079202;28;20218;-73
2023/01/16 10:54:37;;;;;;;0.03;0.03;;;;;;;5.05;84.47;97616.13;5072219;28;20249;-73
2023/01/16 10:57:13;;;;;;;0.00;0.00;;;;;;;4.97;84.73;97597.34;5072056;28;20186;-73
2023/01/16 10:59:39;;;;;;;0.00;0.00;;;;;;;4.97;84.61;97602.75;5070622;28;20178;-73
2023/01/16 11:02:32;;;;;;;0.00;0.00;;;;;;;5.01;84.65;97601.72;5071815;28;20269;-73
2023/01/16 11:04:57;;;;;;;0.73;0.43;;;;;;;5.06;84.30;97576.31;5071315;28;20241;-73
2023/01/16 11:07:26;;;;;;;0.10;0.10;;;;;;;5.08;83.67;97584.91;5070221;28;20176;-72
2023/01/16 11:09:52;;;;;;;0.27;0.27;;;;;;;5.17;83.92;97580.09;5071493;28;20175;-72
2023/01/16 11:20:49;;;;;;;0.30;0.30;;;;;;;5.19;82.58;97498.56;5071223;28;20200;-72
2023/01/16 11:23:20;;;;;;;0.00;0.00;;;;;;;5.18;81.68;97497.00;5069824;28;20170;-72
2023/01/16 11:25:48;;;;;;;0.00;0.00;;;;;;;5.25;81.91;97492.56;5070992;28;20219;-72
2023/01/16 11:28:22;;;;;;;0.23;0.23;;;;;;;5.24;81.51;97491.00;5070930;28;20182;-73
2023/01/16 11:30:51;;;;;;;0.50;0.30;;;;;;;5.25;81.02;97480.97;5070972;28;20233;-72
2023/01/16 11:33:24;;;;;;;0.30;0.30;;;;;;;5.27;80.65;97482.16;5071406;28;20183;-72
2023/01/16 11:35:55;;;;;;;0.00;0.00;;;;;;;5.30;80.74;97473.34;5071062;28;20167;-72
2023/01/16 11:38:22;;;;;;;0.10;0.10;;;;;;;5.31;80.86;97466.00;5071073;28;20167;-72
2023/01/16 11:40:49;;;;;;;0.43;0.23;;;;;;;5.31;80.27;97449.78;5069689;28;20595;-72
2023/01/16 11:46:12;;;;;;;0.00;0.00;;;;;;;5.42;79.66;97436.50;5071492;28;20212;-72
2023/01/16 11:48:38;;;;;;;1.53;0.40;;;;;;;5.34;79.88;97430.91;5070872;28;20150;-72
2023/01/16 11:51:06;;;;;;;0.00;0.00;;;;;;;5.44;79.35;97424.19;5070743;28;20198;-72
2023/01/16 11:53:34;;;;;;;2.63;0.57;;;;;;;5.45;79.32;97424.97;5070567;28;20212;-72
2023/01/16 11:56:25;;;;;;;0.00;0.00;;;;;;;5.47;78.62;97419.97;5070540;28;20181;-72
2023/01/16 11:59:09;;;;;;;0.00;0.00;;;;;;;5.47;78.54;97401.81;5034327;28;20190;-72
2023/01/16 12:04:28;;;;;;;0.00;0.00;;;;;;;5.57;78.95;97401.28;5070563;28;20198;-73
2023/01/16 12:07:14;;;;;;;0.47;0.47;;;;;;;5.64;78.52;97400.63;5069254;28;20253;-72
2023/01/16 12:09:58;;;;;;;0.07;0.07;;;;;;;5.61;78.54;97406.75;5070790;28;20249;-73
2023/01/16 12:15:50;;;;;;;0.00;0.00;;;;;;;5.55;79.18;97379.19;5070598;28;20169;-73
2023/01/16 12:18:31;;;;;;;3.40;0.20;;;;;;;5.58;78.90;97361.44;5070643;28;20169;-73
2023/01/16 12:21:20;;;;;;;0.20;0.20;;;;;;;5.54;79.28;97355.16;5070451;28;20227;-72
2023/01/16 12:23:52;;;;;;;0.53;0.13;;;;;;;5.55;80.08;97343.97;5070447;28;20231;-73
2023/01/16 12:26:21;;;;;;;0.07;0.07;;;;;;;5.51;80.35;97347.75;5070551;28;20559;-73
2023/01/16 12:28:55;;;;;;;0.10;0.10;;;;;;;5.48;80.33;97338.41;5070476;28;20273;-73
2023/01/16 12:31:37;;;;;;;0.00;0.00;;;;;;;5.55;80.68;97330.44;5070335;28;20205;-66
2023/01/16 12:34:18;;;;;;;0.43;0.43;;;;;;;5.60;80.48;97313.13;5070193;28;20163;-73
2023/01/16 12:36:49;;;;;;;0.00;0.00;;;;;;;5.61;80.35;97296.50;5070184;28;20554;-73
2023/01/16 12:39:56;;;;;;;0.00;0.00;;;;;;;5.64;80.72;97303.13;5071949;28;20190;-73
2023/01/16 12:45:47;;;;;;;0.20;0.20;;;;;;;5.77;78.88;97285.59;5074040;28;20186;-73
2023/01/16 12:48:18;;;;;;;0.83;0.10;;;;;;;5.79;78.19;97282.56;5074096;28;20171;-72
2023/01/16 12:51:01;;;;;;;0.00;0.00;;;;;;;5.83;77.92;97275.28;5073690;28;20194;-73
2023/01/16 12:53:42;;;;;;;3.30;1.47;;;;;;;5.89;78.19;97271.91;5073534;28;20251;-72